createdAt,value
2022-07-28T00:00:39.808Z,46.35
2022-07-28T00:03:46.215Z,46.34
2022-07-28T00:06:49.536Z,46.05
2022-07-28T00:09:56.911Z,45.29
2022-07-28T00:13:03.939Z,45.66
2022-07-28T00:16:10.797Z,45.73
2022-07-28T00:19:16.155Z,45.17
2022-07-28T00:22:19.663Z,45.16
2022-07-28T00:25:23.375Z,44.85
2022-07-28T00:28:26.680Z,44.09
2022-07-28T00:31:30.104Z,44.24
2022-07-28T00:34:35.222Z,44.00
2022-07-28T00:37:40.373Z,44.31
2022-07-28T00:41:01.457Z,43.88
2022-07-28T00:44:07.576Z,43.72
2022-07-28T00:47:11.995Z,44.85
2022-07-28T00:50:18.505Z,45.20
2022-07-28T00:53:22.041Z,44.55
2022-07-28T00:56:25.587Z,44.42
2022-07-28T00:59:29.033Z,44.23
2022-07-28T01:02:32.721Z,45.59
2022-07-28T01:05:47.237Z,44.98
2022-07-28T01:09:02.699Z,44.85
2022-07-28T01:12:13.130Z,45.56
2022-07-28T01:15:24.483Z,44.50
2022-07-28T01:18:34.008Z,45.61
2022-07-28T01:21:42.802Z,45.38
2022-07-28T01:24:56.041Z,47.76
2022-07-28T01:28:17.364Z,47.91
2022-07-28T01:31:26.980Z,47.26
2022-07-28T01:34:34.468Z,46.71
2022-07-28T01:37:44.713Z,47.11
2022-07-28T01:40:50.216Z,46.35
2022-07-28T01:43:58.766Z,46.89
2022-07-28T01:47:07.611Z,45.34
2022-07-28T01:50:12.632Z,45.97
2022-07-28T01:53:18.220Z,46.10
2022-07-28T01:56:24.045Z,45.13
2022-07-28T01:59:29.687Z,45.67
2022-07-28T02:02:39.246Z,45.05
2022-07-28T02:05:43.725Z,45.25
2022-07-28T02:08:50.215Z,46.25
2022-07-28T02:11:55.213Z,45.17
2022-07-28T02:14:59.628Z,45.28
2022-07-28T02:18:05.794Z,46.12
2022-07-28T02:21:10.941Z,45.63
2022-07-28T02:24:15.566Z,45.48
2022-07-28T02:27:23.808Z,45.82
2022-07-28T02:30:35.157Z,45.98
2022-07-28T02:34:00.313Z,45.64
2022-07-28T02:37:06.924Z,45.67
2022-07-28T02:40:16.248Z,46.74
2022-07-28T02:43:25.668Z,46.04
2022-07-28T02:46:52.919Z,46.89
2022-07-28T02:50:01.216Z,47.25
2022-07-28T02:53:15.476Z,46.79
2022-07-28T02:56:19.816Z,46.13
2022-07-28T02:59:24.677Z,46.34
2022-07-28T03:02:30.929Z,45.90
2022-07-28T03:05:36.550Z,46.77
2022-07-28T03:08:40.151Z,45.92
2022-07-28T03:11:53.688Z,46.01
2022-07-28T03:14:57.384Z,45.52
2022-07-28T03:18:00.825Z,46.01
2022-07-28T03:21:05.806Z,46.08
2022-07-28T03:24:11.849Z,45.81
2022-07-28T03:27:22.217Z,46.06
2022-07-28T03:30:30.559Z,45.92
2022-07-28T03:33:34.853Z,45.83
2022-07-28T03:36:44.004Z,46.65
2022-07-28T03:39:49.509Z,45.05
2022-07-28T03:42:54.824Z,44.66
2022-07-28T03:45:58.198Z,45.13
2022-07-28T03:49:01.754Z,44.33
2022-07-28T03:52:06.875Z,44.11
2022-07-28T03:55:11.198Z,43.26
2022-07-28T03:58:14.570Z,42.84
2022-07-28T04:01:18.979Z,43.31
2022-07-28T04:04:22.353Z,42.84
2022-07-28T04:07:27.186Z,42.54
2022-07-28T04:10:30.710Z,43.31
2022-07-28T04:13:36.718Z,42.64
2022-07-28T04:16:40.148Z,43.87
2022-07-28T04:19:43.552Z,44.02
2022-07-28T04:22:49.168Z,44.76
2022-07-28T04:25:52.557Z,44.56
2022-07-28T04:28:55.998Z,44.22
2022-07-28T04:31:59.360Z,44.22
2022-07-28T04:35:02.762Z,43.40
2022-07-28T04:38:07.898Z,45.01
2022-07-28T04:41:11.262Z,44.07
2022-07-28T04:44:15.185Z,44.47
2022-07-28T04:47:18.832Z,44.53
2022-07-28T04:50:22.442Z,44.90
2022-07-28T04:53:35.370Z,44.39
2022-07-28T04:56:38.739Z,43.43
2022-07-28T04:59:42.065Z,44.24
2022-07-28T05:02:48.093Z,43.71
2022-07-28T05:05:54.443Z,42.49
2022-07-28T05:08:59.737Z,43.04
2022-07-28T05:12:03.068Z,43.16
2022-07-28T05:15:07.163Z,42.68
2022-07-28T05:18:10.431Z,42.89
2022-07-28T05:21:13.750Z,44.29
2022-07-28T05:24:20.017Z,43.62
2022-07-28T05:27:23.369Z,42.89
2022-07-28T05:30:26.898Z,43.50
2022-07-28T05:33:31.817Z,43.40
2022-07-28T05:36:36.676Z,42.74
2022-07-28T05:39:41.563Z,43.39
2022-07-28T05:42:47.409Z,42.97
2022-07-28T05:45:50.979Z,43.25
2022-07-28T05:48:54.461Z,42.94
2022-07-28T05:51:57.856Z,43.39
2022-07-28T05:55:02.820Z,42.79
2022-07-28T05:58:06.300Z,43.27
2022-07-28T06:01:09.858Z,42.32
2022-07-28T06:04:29.275Z,41.93
2022-07-28T06:07:42.873Z,43.03
2022-07-28T06:11:05.665Z,41.96
2022-07-28T06:14:09.104Z,41.47
2022-07-28T06:17:14.967Z,41.95
2022-07-28T06:20:18.317Z,42.42
2022-07-28T06:23:23.616Z,41.16
2022-07-28T06:26:28.428Z,39.82
2022-07-28T06:29:31.933Z,39.37
2022-07-28T06:32:35.174Z,39.35
2022-07-28T06:35:44.952Z,38.67
2022-07-28T06:38:54.480Z,39.01
2022-07-28T06:41:59.223Z,38.52
2022-07-28T06:45:02.544Z,38.02
2022-07-28T06:48:08.083Z,38.94
2022-07-28T06:51:11.549Z,37.69
2022-07-28T06:54:15.139Z,37.09
2022-07-28T06:57:23.051Z,37.46
2022-07-28T07:00:36.647Z,37.38
2022-07-28T07:03:40.071Z,37.20
2022-07-28T07:06:43.666Z,36.38
2022-07-28T07:09:47.291Z,36.18
2022-07-28T07:12:52.001Z,35.92
2022-07-28T07:15:55.440Z,35.30
2022-07-28T07:18:58.862Z,36.24
2022-07-28T07:22:02.200Z,36.02
2022-07-28T07:25:10.490Z,36.17
2022-07-28T07:28:15.176Z,34.99
2022-07-28T07:31:18.539Z,34.97
2022-07-28T07:34:21.955Z,34.84
2022-07-28T07:37:25.688Z,34.87
2022-07-28T07:40:29.060Z,35.18
2022-07-28T07:43:33.790Z,34.83
2022-07-28T07:46:38.574Z,33.76
2022-07-28T07:49:46.079Z,34.11
2022-07-28T07:52:50.812Z,34.58
2022-07-28T07:55:54.316Z,34.09
2022-07-28T07:58:59.269Z,34.90
2022-07-28T08:02:02.785Z,35.03
2022-07-28T08:05:07.013Z,34.77
2022-07-28T08:08:11.639Z,35.71
2022-07-28T08:11:14.973Z,34.51
2022-07-28T08:14:19.679Z,34.48
2022-07-28T08:17:26.159Z,34.41
2022-07-28T08:20:30.026Z,33.98
2022-07-28T08:23:33.337Z,33.46
2022-07-28T08:26:36.694Z,32.84
2022-07-28T08:29:41.417Z,33.37
2022-07-28T08:32:44.763Z,33.05
2022-07-28T08:36:01.332Z,33.11
2022-07-28T08:39:05.487Z,33.76
2022-07-28T08:42:13.500Z,33.70
2022-07-28T08:45:20.140Z,32.98
2022-07-28T08:48:24.212Z,33.53
2022-07-28T08:51:29.187Z,32.00
2022-07-28T08:54:33.831Z,30.67
2022-07-28T08:57:39.523Z,31.77
2022-07-28T09:00:44.333Z,31.35
2022-07-28T09:03:48.103Z,31.61
2022-07-28T09:06:51.594Z,31.57
2022-07-28T09:09:57.446Z,31.27
2022-07-28T09:13:06.231Z,31.37
2022-07-28T09:16:11.426Z,31.14
2022-07-28T09:19:14.781Z,31.37
2022-07-28T09:22:18.150Z,30.81
2022-07-28T09:25:22.321Z,30.39
2022-07-28T09:28:26.111Z,31.11
2022-07-28T09:31:31.692Z,30.54
2022-07-28T09:34:41.876Z,30.58
2022-07-28T09:37:45.323Z,30.47
2022-07-28T09:40:59.708Z,31.86
2022-07-28T09:44:03.035Z,32.73
2022-07-28T09:47:23.277Z,33.14
2022-07-28T09:50:30.460Z,32.44
2022-07-28T09:53:33.723Z,32.02
2022-07-28T09:56:37.793Z,31.81
2022-07-28T09:59:43.188Z,30.78
2022-07-28T10:02:52.253Z,31.07
2022-07-28T10:05:56.922Z,31.94
2022-07-28T10:09:01.900Z,31.11
2022-07-28T10:12:19.272Z,31.66
2022-07-28T10:15:36.934Z,30.21
2022-07-28T10:18:41.948Z,30.13
2022-07-28T10:21:45.929Z,30.65
2022-07-28T10:24:52.961Z,30.05
2022-07-28T10:27:59.372Z,30.54
2022-07-28T10:31:04.176Z,29.62
2022-07-28T10:34:16.021Z,29.91
2022-07-28T10:37:22.740Z,30.12
2022-07-28T10:40:29.894Z,30.39
2022-07-28T10:43:33.656Z,30.28
2022-07-28T10:46:38.913Z,30.59
2022-07-28T10:49:43.736Z,30.26
2022-07-28T10:52:49.901Z,30.88
2022-07-28T10:56:01.951Z,30.72
2022-07-28T10:59:13.433Z,30.42
2022-07-28T11:02:52.318Z,30.16
2022-07-28T11:05:57.229Z,30.44
2022-07-28T11:09:24.247Z,29.99
2022-07-28T11:12:49.597Z,29.16
2022-07-28T11:15:54.066Z,29.13
2022-07-28T11:19:36.839Z,29.44
2022-07-28T11:22:34.167Z,29.04
2022-07-28T11:25:37.861Z,29.25
2022-07-28T11:29:20.297Z,28.75
2022-07-28T11:32:23.698Z,29.01
2022-07-28T11:35:31.871Z,29.12
2022-07-28T11:38:36.603Z,28.73
2022-07-28T11:41:40.008Z,28.49
2022-07-28T11:44:43.944Z,28.14
2022-07-28T11:47:47.331Z,27.96
2022-07-28T11:51:11.744Z,27.39
2022-07-28T11:54:18.914Z,27.73
2022-07-28T11:57:26.020Z,28.40
2022-07-28T12:00:29.344Z,27.40
2022-07-28T12:03:48.907Z,27.11
2022-07-28T12:06:53.840Z,26.51
2022-07-28T12:09:59.188Z,26.67
2022-07-28T12:13:04.819Z,26.68
2022-07-28T12:16:08.228Z,26.20
2022-07-28T12:19:12.452Z,26.16
2022-07-28T12:22:16.022Z,26.65
2022-07-28T12:25:20.810Z,26.38
2022-07-28T12:28:29.672Z,26.85
2022-07-28T12:31:34.144Z,27.80
2022-07-28T12:34:38.176Z,28.33
2022-07-28T12:37:43.183Z,28.46
2022-07-28T12:40:48.227Z,29.25
2022-07-28T12:43:52.526Z,29.45
2022-07-28T12:46:55.879Z,28.98
2022-07-28T12:50:14.540Z,29.90
2022-07-28T12:53:22.003Z,29.11
2022-07-28T12:56:26.816Z,29.39
2022-07-28T12:59:33.961Z,29.30
2022-07-28T13:02:38.154Z,29.24
2022-07-28T13:05:59.025Z,29.52
2022-07-28T13:09:02.509Z,29.25
2022-07-28T13:12:19.337Z,28.94
2022-07-28T13:15:22.691Z,28.75
2022-07-28T13:18:40.424Z,29.16
2022-07-28T13:21:58.486Z,28.86
2022-07-28T13:25:03.856Z,29.79
2022-07-28T13:28:23.824Z,28.60
2022-07-28T13:31:27.336Z,28.59
2022-07-28T13:34:30.569Z,28.61
2022-07-28T13:37:33.976Z,29.31
2022-07-28T13:40:37.355Z,29.17
2022-07-28T13:43:42.136Z,29.15
2022-07-28T13:46:51.734Z,29.58
2022-07-28T13:49:55.238Z,29.24
2022-07-28T13:52:59.346Z,29.05
2022-07-28T13:56:02.677Z,29.30
2022-07-28T13:59:10.244Z,29.63
2022-07-28T14:02:16.915Z,29.55
2022-07-28T14:05:21.047Z,29.38
2022-07-28T14:08:25.393Z,33.01
2022-07-28T14:11:29.027Z,36.72
2022-07-28T14:14:39.436Z,37.54
2022-07-28T14:17:51.520Z,38.70
2022-07-28T14:20:55.021Z,38.73
2022-07-28T14:23:58.411Z,39.57
2022-07-28T14:27:01.775Z,39.00
2022-07-28T14:30:08.199Z,39.07
2022-07-28T14:33:11.539Z,40.09
2022-07-28T14:36:14.897Z,40.08
2022-07-28T14:39:18.281Z,40.25
2022-07-28T14:42:21.598Z,41.27
2022-07-28T14:45:26.438Z,41.39
2022-07-28T14:48:30.995Z,42.50
2022-07-28T14:51:34.340Z,43.76
2022-07-28T14:54:38.428Z,44.15
2022-07-28T14:57:51.812Z,42.87
2022-07-28T15:00:58.880Z,42.14
2022-07-28T15:04:02.249Z,40.54
2022-07-28T15:07:05.637Z,40.51
2022-07-28T15:10:09.801Z,40.97
2022-07-28T15:13:13.115Z,41.87
2022-07-28T15:16:17.909Z,41.85
2022-07-28T15:19:21.969Z,42.21
2022-07-28T15:22:26.567Z,41.66
2022-07-28T15:25:30.136Z,41.33
2022-07-28T15:28:33.490Z,41.23
2022-07-28T15:31:38.290Z,42.34
2022-07-28T15:34:43.028Z,41.87
2022-07-28T15:37:46.344Z,40.98
2022-07-28T15:40:50.556Z,41.39
2022-07-28T15:43:57.572Z,41.06
2022-07-28T15:47:02.326Z,41.07
2022-07-28T15:50:07.742Z,41.06
2022-07-28T15:53:11.054Z,40.80
2022-07-28T15:56:14.607Z,40.18
2022-07-28T15:59:18.019Z,40.46
2022-07-28T16:02:22.901Z,40.48
2022-07-28T16:05:26.410Z,40.03
2022-07-28T16:08:29.700Z,40.51
2022-07-28T16:11:33.007Z,40.59
2022-07-28T16:14:36.870Z,39.09
2022-07-28T16:17:42.257Z,39.68
2022-07-28T16:20:45.693Z,39.17
2022-07-28T16:23:49.166Z,38.95
2022-07-28T16:26:52.796Z,39.79
2022-07-28T16:29:56.128Z,39.55
2022-07-28T16:33:01.491Z,39.69
2022-07-28T16:36:05.473Z,39.78
2022-07-28T16:39:09.579Z,41.12
2022-07-28T16:42:12.957Z,41.45
2022-07-28T16:45:17.117Z,41.63
2022-07-28T16:48:21.948Z,41.61
2022-07-28T16:51:25.363Z,42.54
2022-07-28T16:54:28.730Z,43.15
2022-07-28T16:57:32.058Z,42.99
2022-07-28T17:00:35.635Z,42.89
2022-07-28T17:03:40.908Z,42.57
2022-07-28T17:06:44.428Z,41.70
2022-07-28T17:09:47.705Z,42.10
2022-07-28T17:12:50.995Z,42.42
2022-07-28T17:15:54.678Z,41.60
2022-07-28T17:18:59.612Z,41.52
2022-07-28T17:22:06.280Z,41.49
2022-07-28T17:25:28.486Z,41.43
2022-07-28T17:28:33.766Z,42.06
2022-07-28T17:31:37.592Z,41.72
2022-07-28T17:34:42.493Z,41.41
2022-07-28T17:37:45.827Z,40.86
2022-07-28T17:40:51.268Z,40.46
2022-07-28T17:43:54.629Z,40.15
2022-07-28T17:46:58.007Z,40.29
2022-07-28T17:50:02.828Z,40.16
2022-07-28T17:53:06.604Z,39.71
2022-07-28T17:56:10.028Z,40.11
2022-07-28T17:59:13.717Z,40.44
2022-07-28T18:02:17.339Z,40.29
2022-07-28T18:05:22.161Z,40.79
2022-07-28T18:08:26.386Z,41.25
2022-07-28T18:11:30.119Z,41.08
2022-07-28T18:14:33.393Z,41.37
2022-07-28T18:17:36.699Z,41.30
2022-07-28T18:21:00.336Z,41.27
2022-07-28T18:24:04.046Z,41.37
2022-07-28T18:27:07.461Z,40.90
2022-07-28T18:30:12.576Z,41.17
2022-07-28T18:33:17.716Z,40.92
2022-07-28T18:36:22.578Z,40.58
2022-07-28T18:39:25.949Z,40.38
2022-07-28T18:42:32.090Z,41.29
2022-07-28T18:45:35.769Z,41.15
2022-07-28T18:48:39.189Z,41.12
2022-07-28T18:51:45.746Z,40.85
2022-07-28T18:54:49.238Z,40.35
2022-07-28T18:57:52.562Z,40.81
2022-07-28T19:00:55.868Z,40.26
2022-07-28T19:03:59.215Z,41.39
2022-07-28T19:07:04.016Z,40.51
2022-07-28T19:10:10.848Z,40.96
2022-07-28T19:13:14.182Z,40.90
2022-07-28T19:16:19.084Z,40.28
2022-07-28T19:19:22.521Z,39.93
2022-07-28T19:22:27.291Z,39.40
2022-07-28T19:25:30.798Z,39.61
2022-07-28T19:28:34.427Z,39.53
2022-07-28T19:31:37.873Z,39.06
2022-07-28T19:34:43.050Z,39.20
2022-07-28T19:37:47.850Z,39.55
2022-07-28T19:40:51.253Z,39.49
2022-07-28T19:43:54.594Z,40.16
2022-07-28T19:46:58.497Z,40.09
2022-07-28T19:50:02.931Z,40.98
2022-07-28T19:53:07.705Z,41.13
2022-07-28T19:56:18.613Z,40.79
2022-07-28T19:59:23.070Z,41.06
2022-07-28T20:02:26.466Z,41.19
2022-07-28T20:05:29.747Z,41.22
2022-07-28T20:08:34.635Z,40.91
2022-07-28T20:11:39.094Z,41.36
2022-07-28T20:14:42.475Z,40.93
2022-07-28T20:17:45.892Z,41.82
2022-07-28T20:20:49.839Z,41.78
2022-07-28T20:23:57.120Z,42.48
2022-07-28T20:27:01.133Z,43.36
2022-07-28T20:30:04.912Z,42.99
2022-07-28T20:33:08.340Z,42.99
2022-07-28T20:36:11.756Z,42.93
2022-07-28T20:39:43.239Z,43.64
2022-07-28T20:42:39.903Z,43.86
2022-07-28T20:45:43.236Z,43.68
2022-07-28T20:48:46.613Z,43.65
2022-07-28T20:51:51.221Z,43.31
2022-07-28T20:54:56.433Z,44.28
2022-07-28T20:57:59.768Z,44.05
2022-07-28T21:01:03.798Z,43.57
2022-07-28T21:04:07.313Z,44.24
2022-07-28T21:07:14.720Z,44.64
2022-07-28T21:10:19.333Z,44.35
2022-07-28T21:13:22.921Z,44.14
2022-07-28T21:16:26.260Z,44.85
2022-07-28T21:19:29.501Z,44.81
2022-07-28T21:22:32.778Z,44.75
2022-07-28T21:25:37.483Z,45.44
2022-07-28T21:28:58.424Z,45.22
2022-07-28T21:32:05.425Z,45.38
2022-07-28T21:35:14.021Z,45.08
2022-07-28T21:38:17.562Z,45.50
2022-07-28T21:41:25.357Z,46.48
2022-07-28T21:44:28.640Z,46.78
2022-07-28T21:47:34.141Z,46.78
2022-07-28T21:50:38.184Z,46.28
2022-07-28T21:53:42.388Z,46.59
2022-07-28T21:56:47.877Z,45.95
2022-07-28T21:59:51.074Z,45.83
2022-07-28T22:02:54.430Z,46.56
2022-07-28T22:05:57.638Z,46.66
2022-07-28T22:09:00.795Z,45.95
2022-07-28T22:12:05.818Z,45.46
2022-07-28T22:15:09.432Z,45.70
2022-07-28T22:18:16.669Z,45.47
2022-07-28T22:21:20.190Z,45.65
2022-07-28T22:24:23.706Z,45.48
2022-07-28T22:27:28.432Z,46.07
2022-07-28T22:30:31.763Z,45.49
2022-07-28T22:33:34.963Z,45.31
2022-07-28T22:36:38.664Z,45.35
2022-07-28T22:39:42.112Z,45.76
2022-07-28T22:42:48.398Z,45.46
2022-07-28T22:45:51.921Z,45.60
2022-07-28T22:48:55.307Z,45.82
2022-07-28T22:51:58.630Z,45.47
2022-07-28T22:55:01.913Z,45.64
2022-07-28T22:58:06.626Z,46.41
2022-07-28T23:01:09.926Z,45.97
2022-07-28T23:04:14.806Z,46.02
2022-07-28T23:07:19.117Z,45.59
2022-07-28T23:10:22.870Z,45.84
2022-07-28T23:13:27.599Z,46.00
2022-07-28T23:16:31.010Z,46.37
2022-07-28T23:19:34.469Z,47.14
2022-07-28T23:22:38.065Z,47.25
2022-07-28T23:25:43.045Z,48.46
2022-07-28T23:28:47.770Z,48.76
2022-07-28T23:31:51.342Z,48.98
2022-07-28T23:34:54.595Z,48.63
2022-07-28T23:37:57.901Z,48.62
2022-07-28T23:41:01.150Z,49.15
2022-07-28T23:44:06.685Z,49.45
2022-07-28T23:47:11.156Z,48.83
2022-07-28T23:50:14.445Z,49.02
2022-07-28T23:53:17.779Z,48.74
2022-07-28T23:56:21.047Z,48.20
2022-07-28T23:59:26.115Z,48.54
